sensor_id;sensor_type;location;lat;lon;timestamp;pressure;altitude;pressure_sealevel;temperature;humidity
20825;BME280;10573;50.936;6.978;2023-06-26T00:00:24;100901.50;;;25.66;45.73
20825;BME280;10573;50.936;6.978;2023-06-26T00:02:50;100902.72;;;25.58;46.48
20825;BME280;10573;50.936;6.978;2023-06-26T00:05:15;100895.94;;;25.54;46.72
20825;BME280;10573;50.936;6.978;2023-06-26T00:07:41;100896.78;;;25.42;46.90
20825;BME280;10573;50.936;6.978;2023-06-26T00:10:06;100898.94;;;25.40;47.10
20825;BME280;10573;50.936;6.978;2023-06-26T00:12:32;100891.66;;;25.39;46.98
20825;BME280;10573;50.936;6.978;2023-06-26T00:14:58;100891.19;;;25.42;46.87
20825;BME280;10573;50.936;6.978;2023-06-26T00:17:23;100897.44;;;25.26;47.51
20825;BME280;10573;50.936;6.978;2023-06-26T00:19:50;100894.06;;;25.24;47.62
20825;BME280;10573;50.936;6.978;2023-06-26T00:22:18;100890.31;;;25.30;47.25
20825;BME280;10573;50.936;6.978;2023-06-26T00:24:43;100893.78;;;25.13;47.53
20825;BME280;10573;50.936;6.978;2023-06-26T00:27:10;100893.56;;;25.27;47.73
20825;BME280;10573;50.936;6.978;2023-06-26T00:29:35;100891.84;;;25.26;47.43
20825;BME280;10573;50.936;6.978;2023-06-26T00:32:01;100885.16;;;25.15;47.12
20825;BME280;10573;50.936;6.978;2023-06-26T00:34:26;100884.81;;;25.11;47.15
20825;BME280;10573;50.936;6.978;2023-06-26T00:36:52;100890.84;;;25.08;46.96
20825;BME280;10573;50.936;6.978;2023-06-26T00:39:17;100888.78;;;25.04;47.18
20825;BME280;10573;50.936;6.978;2023-06-26T00:41:42;100890.97;;;25.02;47.20
20825;BME280;10573;50.936;6.978;2023-06-26T00:44:08;100885.69;;;24.82;47.24
20825;BME280;10573;50.936;6.978;2023-06-26T00:46:34;100883.31;;;24.97;47.14
20825;BME280;10573;50.936;6.978;2023-06-26T00:49:02;100882.59;;;24.90;47.14
20825;BME280;10573;50.936;6.978;2023-06-26T00:51:29;100884.75;;;24.88;47.14
20825;BME280;10573;50.936;6.978;2023-06-26T00:53:55;100880.59;;;24.78;47.46
20825;BME280;10573;50.936;6.978;2023-06-26T00:56:21;100879.50;;;24.79;47.52
20825;BME280;10573;50.936;6.978;2023-06-26T00:58:47;100882.16;;;24.74;47.56
20825;BME280;10573;50.936;6.978;2023-06-26T01:01:13;100873.97;;;24.61;47.90
20825;BME280;10573;50.936;6.978;2023-06-26T01:03:45;100871.59;;;24.65;47.99
20825;BME280;10573;50.936;6.978;2023-06-26T01:06:17;100876.34;;;24.45;48.16
20825;BME280;10573;50.936;6.978;2023-06-26T01:08:44;100873.97;;;24.61;47.96
20825;BME280;10573;50.936;6.978;2023-06-26T01:11:11;100872.91;;;24.62;47.84
20825;BME280;10573;50.936;6.978;2023-06-26T01:13:36;100865.78;;;24.66;47.85
20825;BME280;10573;50.936;6.978;2023-06-26T01:16:04;100876.59;;;24.56;48.14
20825;BME280;10573;50.936;6.978;2023-06-26T01:18:31;100865.00;;;24.59;47.92
20825;BME280;10573;50.936;6.978;2023-06-26T01:20:58;100865.00;;;24.59;48.26
20825;BME280;10573;50.936;6.978;2023-06-26T01:26:26;100859.97;;;24.49;48.61
20825;BME280;10573;50.936;6.978;2023-06-26T01:28:53;100858.19;;;24.55;48.76
20825;BME280;10573;50.936;6.978;2023-06-26T01:31:19;100858.84;;;24.38;49.07
20825;BME280;10573;50.936;6.978;2023-06-26T01:33:46;100857.63;;;24.34;48.94
20825;BME280;10573;50.936;6.978;2023-06-26T01:36:12;100857.31;;;24.24;49.43
20825;BME280;10573;50.936;6.978;2023-06-26T01:38:37;100850.66;;;24.25;49.25
20825;BME280;10573;50.936;6.978;2023-06-26T01:41:04;100853.59;;;24.30;49.12
20825;BME280;10573;50.936;6.978;2023-06-26T01:46:11;100854.84;;;24.16;49.68
20825;BME280;10573;50.936;6.978;2023-06-26T01:48:54;100844.66;;;24.09;49.78
20825;BME280;10573;50.936;6.978;2023-06-26T01:51:21;100851.06;;;24.10;49.88
20825;BME280;10573;50.936;6.978;2023-06-26T01:53:54;100852.22;;;24.21;49.99
20825;BME280;10573;50.936;6.978;2023-06-26T01:56:22;100862.75;;;24.00;50.32
20825;BME280;10573;50.936;6.978;2023-06-26T01:58:49;100856.72;;;24.03;50.01
20825;BME280;10573;50.936;6.978;2023-06-26T02:01:18;100863.81;;;23.99;50.35
20825;BME280;10573;50.936;6.978;2023-06-26T02:03:44;100867.09;;;23.96;50.32
20825;BME280;10573;50.936;6.978;2023-06-26T02:06:09;100858.09;;;23.94;50.35
20825;BME280;10573;50.936;6.978;2023-06-26T02:08:35;100858.91;;;24.01;50.04
20825;BME280;10573;50.936;6.978;2023-06-26T02:11:01;100861.69;;;24.01;49.83
20825;BME280;10573;50.936;6.978;2023-06-26T02:13:26;100869.31;;;24.06;49.56
20825;BME280;10573;50.936;6.978;2023-06-26T02:15:51;100867.81;;;23.85;49.94
20825;BME280;10573;50.936;6.978;2023-06-26T02:18:17;100868.78;;;23.97;49.78
20825;BME280;10573;50.936;6.978;2023-06-26T02:20:43;100882.06;;;23.95;49.83
20825;BME280;10573;50.936;6.978;2023-06-26T02:23:09;100870.31;;;23.93;50.16
20825;BME280;10573;50.936;6.978;2023-06-26T02:25:34;100877.25;;;23.84;50.29
20825;BME280;10573;50.936;6.978;2023-06-26T02:28:00;100878.47;;;23.69;50.97
20825;BME280;10573;50.936;6.978;2023-06-26T02:30:25;100881.41;;;23.74;51.19
20825;BME280;10573;50.936;6.978;2023-06-26T02:32:51;100880.13;;;23.77;50.54
20825;BME280;10573;50.936;6.978;2023-06-26T02:35:16;100884.19;;;23.74;51.10
20825;BME280;10573;50.936;6.978;2023-06-26T02:37:41;100887.53;;;23.83;51.25
20825;BME280;10573;50.936;6.978;2023-06-26T02:40:07;100886.84;;;23.88;50.96
20825;BME280;10573;50.936;6.978;2023-06-26T02:42:34;100890.91;;;23.92;51.17
20825;BME280;10573;50.936;6.978;2023-06-26T02:45:00;100888.72;;;23.94;51.03
20825;BME280;10573;50.936;6.978;2023-06-26T02:47:25;100879.56;;;23.87;51.14
20825;BME280;10573;50.936;6.978;2023-06-26T02:49:51;100891.59;;;23.80;51.41
20825;BME280;10573;50.936;6.978;2023-06-26T02:52:16;100897.16;;;23.80;51.75
20825;BME280;10573;50.936;6.978;2023-06-26T02:54:42;100898.03;;;23.81;51.68
20825;BME280;10573;50.936;6.978;2023-06-26T02:57:07;100913.16;;;23.67;52.14
20825;BME280;10573;50.936;6.978;2023-06-26T02:59:32;100917.25;;;23.64;52.25
20825;BME280;10573;50.936;6.978;2023-06-26T03:01:58;100922.09;;;23.69;52.07
20825;BME280;10573;50.936;6.978;2023-06-26T03:04:24;100919.50;;;23.74;52.37
20825;BME280;10573;50.936;6.978;2023-06-26T03:06:49;100921.03;;;23.70;52.61
20825;BME280;10573;50.936;6.978;2023-06-26T03:09:14;100913.81;;;23.62;52.74
20825;BME280;10573;50.936;6.978;2023-06-26T03:11:41;100918.31;;;23.63;53.13
20825;BME280;10573;50.936;6.978;2023-06-26T03:14:06;100922.97;;;23.69;52.75
20825;BME280;10573;50.936;6.978;2023-06-26T03:16:32;100914.06;;;23.60;52.69
20825;BME280;10573;50.936;6.978;2023-06-26T03:18:57;100918.50;;;23.68;52.99
20825;BME280;10573;50.936;6.978;2023-06-26T03:21:23;100922.97;;;23.69;52.79
20825;BME280;10573;50.936;6.978;2023-06-26T03:23:48;100929.78;;;23.73;52.62
20825;BME280;10573;50.936;6.978;2023-06-26T03:26:13;100934.59;;;23.59;53.23
20825;BME280;10573;50.936;6.978;2023-06-26T03:28:40;100931.31;;;23.69;52.46
20825;BME280;10573;50.936;6.978;2023-06-26T03:31:05;100928.84;;;23.79;51.03
20825;BME280;10573;50.936;6.978;2023-06-26T03:33:32;100927.78;;;23.80;50.01
20825;BME280;10573;50.936;6.978;2023-06-26T03:35:58;100929.06;;;24.03;49.38
20825;BME280;10573;50.936;6.978;2023-06-26T03:38:24;100935.41;;;24.10;49.16
20825;BME280;10573;50.936;6.978;2023-06-26T03:40:51;100933.72;;;24.09;49.27
20825;BME280;10573;50.936;6.978;2023-06-26T03:43:16;100928.16;;;24.09;49.16
20825;BME280;10573;50.936;6.978;2023-06-26T03:45:41;100931.31;;;24.32;48.94
20825;BME280;10573;50.936;6.978;2023-06-26T03:48:07;100931.00;;;24.40;48.93
20825;BME280;10573;50.936;6.978;2023-06-26T03:50:33;100926.31;;;24.40;49.09
20825;BME280;10573;50.936;6.978;2023-06-26T03:52:59;100943.28;;;24.51;48.93
20825;BME280;10573;50.936;6.978;2023-06-26T03:55:24;100937.38;;;24.28;49.41
20825;BME280;10573;50.936;6.978;2023-06-26T03:57:50;100940.75;;;24.30;49.33
20825;BME280;10573;50.936;6.978;2023-06-26T04:00:15;100946.88;;;24.21;49.43
20825;BME280;10573;50.936;6.978;2023-06-26T04:02:41;100948.34;;;24.42;49.25
20825;BME280;10573;50.936;6.978;2023-06-26T04:05:06;100951.69;;;24.32;49.23
20825;BME280;10573;50.936;6.978;2023-06-26T04:07:32;100945.31;;;24.43;49.03
20825;BME280;10573;50.936;6.978;2023-06-26T04:09:57;100953.84;;;24.49;49.35
20825;BME280;10573;50.936;6.978;2023-06-26T04:12:23;100956.16;;;24.33;49.57
20825;BME280;10573;50.936;6.978;2023-06-26T04:14:49;100957.53;;;24.42;49.28
20825;BME280;10573;50.936;6.978;2023-06-26T04:17:14;100966.53;;;24.44;49.48
20825;BME280;10573;50.936;6.978;2023-06-26T04:19:39;100968.25;;;24.45;49.49
20825;BME280;10573;50.936;6.978;2023-06-26T04:22:05;100971.63;;;24.29;49.70
20825;BME280;10573;50.936;6.978;2023-06-26T04:24:30;100970.69;;;24.35;49.82
20825;BME280;10573;50.936;6.978;2023-06-26T04:26:56;100980.13;;;24.34;50.04
20825;BME280;10573;50.936;6.978;2023-06-26T04:29:26;100981.38;;;24.38;50.16
20825;BME280;10573;50.936;6.978;2023-06-26T04:31:53;100991.88;;;24.18;50.69
20825;BME280;10573;50.936;6.978;2023-06-26T04:34:24;100985.09;;;24.32;50.56
20825;BME280;10573;50.936;6.978;2023-06-26T04:36:49;101002.84;;;24.12;51.37
20825;BME280;10573;50.936;6.978;2023-06-26T04:39:15;100991.88;;;24.18;51.38
20825;BME280;10573;50.936;6.978;2023-06-26T04:41:41;100992.56;;;24.13;51.79
20825;BME280;10573;50.936;6.978;2023-06-26T04:44:06;100999.72;;;24.02;52.06
20825;BME280;10573;50.936;6.978;2023-06-26T04:46:32;100994.56;;;24.06;51.96
20825;BME280;10573;50.936;6.978;2023-06-26T04:48:57;101003.16;;;24.04;51.85
20825;BME280;10573;50.936;6.978;2023-06-26T04:51:24;101000.47;;;24.16;51.43
20825;BME280;10573;50.936;6.978;2023-06-26T04:53:49;100992.16;;;23.91;51.46
20825;BME280;10573;50.936;6.978;2023-06-26T04:56:16;101005.06;;;23.78;51.83
20825;BME280;10573;50.936;6.978;2023-06-26T04:58:41;101005.41;;;23.89;51.77
20825;BME280;10573;50.936;6.978;2023-06-26T05:01:07;101008.03;;;23.84;51.49
20825;BME280;10573;50.936;6.978;2023-06-26T05:03:33;101004.16;;;23.85;51.44
20825;BME280;10573;50.936;6.978;2023-06-26T05:05:59;101008.47;;;23.80;51.68
20825;BME280;10573;50.936;6.978;2023-06-26T05:08:25;101013.66;;;23.77;51.56
20825;BME280;10573;50.936;6.978;2023-06-26T05:10:52;101007.63;;;23.80;51.54
20825;BME280;10573;50.936;6.978;2023-06-26T05:13:18;101009.06;;;23.89;51.61
20825;BME280;10573;50.936;6.978;2023-06-26T05:15:45;101010.50;;;23.99;51.21
20825;BME280;10573;50.936;6.978;2023-06-26T05:18:11;101022.50;;;24.18;51.27
20825;BME280;10573;50.936;6.978;2023-06-26T05:20:37;101014.28;;;24.04;50.68
20825;BME280;10573;50.936;6.978;2023-06-26T05:23:03;101016.75;;;23.87;51.19
20825;BME280;10573;50.936;6.978;2023-06-26T05:25:29;101018.63;;;24.00;51.12
20825;BME280;10573;50.936;6.978;2023-06-26T05:27:58;101019.81;;;23.79;51.32
20825;BME280;10573;50.936;6.978;2023-06-26T05:30:25;101024.66;;;23.97;50.90
20825;BME280;10573;50.936;6.978;2023-06-26T05:32:51;101027.72;;;23.82;51.19
20825;BME280;10573;50.936;6.978;2023-06-26T05:35:17;101033.06;;;23.84;51.08
20825;BME280;10573;50.936;6.978;2023-06-26T05:37:43;101031.97;;;23.85;51.20
20825;BME280;10573;50.936;6.978;2023-06-26T05:40:10;101031.47;;;23.69;51.76
20825;BME280;10573;50.936;6.978;2023-06-26T05:42:35;101029.06;;;23.48;52.13
20825;BME280;10573;50.936;6.978;2023-06-26T05:45:01;101037.75;;;23.58;51.76
20825;BME280;10573;50.936;6.978;2023-06-26T05:47:26;101040.13;;;23.54;52.19
20825;BME280;10573;50.936;6.978;2023-06-26T05:49:52;101047.19;;;23.57;52.40
20825;BME280;10573;50.936;6.978;2023-06-26T05:52:18;101049.31;;;23.55;52.55
20825;BME280;10573;50.936;6.978;2023-06-26T05:54:43;101044.25;;;23.45;52.36
20825;BME280;10573;50.936;6.978;2023-06-26T05:57:09;101054.09;;;23.48;52.67
20825;BME280;10573;50.936;6.978;2023-06-26T05:59:36;101045.84;;;23.34;52.91
20825;BME280;10573;50.936;6.978;2023-06-26T06:02:04;101063.00;;;23.18;53.50
20825;BME280;10573;50.936;6.978;2023-06-26T06:04:30;101057.44;;;23.18;53.30
20825;BME280;10573;50.936;6.978;2023-06-26T06:06:55;101059.91;;;23.39;53.16
20825;BME280;10573;50.936;6.978;2023-06-26T06:09:20;101071.56;;;23.09;53.61
20825;BME280;10573;50.936;6.978;2023-06-26T06:11:46;101070.63;;;23.36;53.20
20825;BME280;10573;50.936;6.978;2023-06-26T06:14:11;101066.59;;;23.63;52.57
20825;BME280;10573;50.936;6.978;2023-06-26T06:16:37;101070.31;;;23.51;53.01
20825;BME280;10573;50.936;6.978;2023-06-26T06:19:03;101076.84;;;23.31;53.60
20825;BME280;10573;50.936;6.978;2023-06-26T06:21:29;101076.69;;;23.58;53.22
20825;BME280;10573;50.936;6.978;2023-06-26T06:23:55;101068.53;;;23.95;52.71
20825;BME280;10573;50.936;6.978;2023-06-26T06:26:20;101065.44;;;24.28;51.81
20825;BME280;10573;50.936;6.978;2023-06-26T06:28:46;101077.78;;;23.89;52.11
20825;BME280;10573;50.936;6.978;2023-06-26T06:31:11;101090.22;;;23.79;52.85
20825;BME280;10573;50.936;6.978;2023-06-26T06:33:36;101097.22;;;23.63;53.24
20825;BME280;10573;50.936;6.978;2023-06-26T06:36:02;101081.97;;;23.66;53.28
20825;BME280;10573;50.936;6.978;2023-06-26T06:38:27;101090.41;;;23.53;54.21
20825;BME280;10573;50.936;6.978;2023-06-26T06:40:52;101091.41;;;23.65;53.71
20825;BME280;10573;50.936;6.978;2023-06-26T06:43:18;101084.66;;;23.79;53.10
20825;BME280;10573;50.936;6.978;2023-06-26T06:45:44;101096.59;;;23.87;53.10
20825;BME280;10573;50.936;6.978;2023-06-26T06:48:10;101096.81;;;23.92;52.99
20825;BME280;10573;50.936;6.978;2023-06-26T06:50:35;101092.41;;;23.77;52.99
20825;BME280;10573;50.936;6.978;2023-06-26T06:53:01;101106.28;;;23.45;53.80
20825;BME280;10573;50.936;6.978;2023-06-26T06:55:26;101106.16;;;23.27;54.53
20825;BME280;10573;50.936;6.978;2023-06-26T06:57:52;101105.47;;;23.38;54.75
20825;BME280;10573;50.936;6.978;2023-06-26T07:00:17;101112.66;;;23.53;54.71
20825;BME280;10573;50.936;6.978;2023-06-26T07:02:44;101110.22;;;23.24;55.10
20825;BME280;10573;50.936;6.978;2023-06-26T07:05:10;101108.53;;;23.30;54.87
20825;BME280;10573;50.936;6.978;2023-06-26T07:07:37;101123.78;;;23.53;54.33
20825;BME280;10573;50.936;6.978;2023-06-26T07:12:29;101119.84;;;23.67;53.65
20825;BME280;10573;50.936;6.978;2023-06-26T07:14:56;101132.72;;;23.61;53.95
20825;BME280;10573;50.936;6.978;2023-06-26T07:17:21;101138.56;;;23.85;53.80
20825;BME280;10573;50.936;6.978;2023-06-26T07:19:48;101143.91;;;23.48;54.31
20825;BME280;10573;50.936;6.978;2023-06-26T07:22:13;101134.59;;;24.06;53.78
20825;BME280;10573;50.936;6.978;2023-06-26T07:24:39;101141.47;;;24.29;52.76
20825;BME280;10573;50.936;6.978;2023-06-26T07:27:04;101141.81;;;24.39;52.47
20825;BME280;10573;50.936;6.978;2023-06-26T07:29:29;101148.22;;;23.83;54.13
20825;BME280;10573;50.936;6.978;2023-06-26T07:31:55;101151.00;;;23.83;53.86
20825;BME280;10573;50.936;6.978;2023-06-26T07:34:20;101154.47;;;23.71;54.23
20825;BME280;10573;50.936;6.978;2023-06-26T07:36:46;101159.06;;;23.59;54.38
20825;BME280;10573;50.936;6.978;2023-06-26T07:39:11;101160.31;;;23.63;54.58
20825;BME280;10573;50.936;6.978;2023-06-26T07:41:36;101162.22;;;23.69;54.54
20825;BME280;10573;50.936;6.978;2023-06-26T07:44:02;101158.94;;;23.40;54.79
20825;BME280;10573;50.936;6.978;2023-06-26T07:46:27;101149.88;;;23.58;55.13
20825;BME280;10573;50.936;6.978;2023-06-26T07:48:53;101146.41;;;23.63;55.26
20825;BME280;10573;50.936;6.978;2023-06-26T07:51:19;101136.22;;;23.89;54.04
20825;BME280;10573;50.936;6.978;2023-06-26T07:53:44;101151.16;;;23.56;54.65
20825;BME280;10573;50.936;6.978;2023-06-26T07:56:10;101146.97;;;24.10;53.80
20825;BME280;10573;50.936;6.978;2023-06-26T07:58:35;101151.13;;;24.01;53.00
20825;BME280;10573;50.936;6.978;2023-06-26T08:01:01;101154.31;;;24.30;52.17
20825;BME280;10573;50.936;6.978;2023-06-26T08:03:26;101154.53;;;24.03;52.81
20825;BME280;10573;50.936;6.978;2023-06-26T08:05:51;101159.09;;;24.23;52.74
20825;BME280;10573;50.936;6.978;2023-06-26T08:08:17;101151.06;;;24.58;51.93
20825;BME280;10573;50.936;6.978;2023-06-26T08:10:42;101161.09;;;24.66;51.77
20825;BME280;10573;50.936;6.978;2023-06-26T08:13:08;101157.50;;;24.34;52.65
20825;BME280;10573;50.936;6.978;2023-06-26T08:15:34;101158.13;;;24.61;52.66
20825;BME280;10573;50.936;6.978;2023-06-26T08:17:59;101163.91;;;24.85;52.24
20825;BME280;10573;50.936;6.978;2023-06-26T08:20:24;101160.91;;;24.86;52.10
20825;BME280;10573;50.936;6.978;2023-06-26T08:22:50;101166.41;;;24.93;51.43
20825;BME280;10573;50.936;6.978;2023-06-26T08:25:17;101168.50;;;25.16;51.08
20825;BME280;10573;50.936;6.978;2023-06-26T08:27:43;101159.97;;;25.29;50.29
20825;BME280;10573;50.936;6.978;2023-06-26T08:30:08;101165.03;;;25.21;50.09
20825;BME280;10573;50.936;6.978;2023-06-26T08:32:34;101169.34;;;24.98;50.32
20825;BME280;10573;50.936;6.978;2023-06-26T08:34:59;101185.44;;;24.96;50.64
20825;BME280;10573;50.936;6.978;2023-06-26T08:37:25;101187.63;;;25.31;49.48
20825;BME280;10573;50.936;6.978;2023-06-26T08:39:50;101195.34;;;25.36;49.47
20825;BME280;10573;50.936;6.978;2023-06-26T08:42:16;101183.59;;;25.27;49.76
20825;BME280;10573;50.936;6.978;2023-06-26T08:44:41;101182.03;;;25.12;49.67
20825;BME280;10573;50.936;6.978;2023-06-26T08:47:07;101184.28;;;25.04;50.31
20825;BME280;10573;50.936;6.978;2023-06-26T08:49:47;101193.59;;;25.16;49.45
20825;BME280;10573;50.936;6.978;2023-06-26T08:52:30;101192.38;;;25.49;48.73
20825;BME280;10573;50.936;6.978;2023-06-26T08:54:58;101203.44;;;25.56;49.11
20825;BME280;10573;50.936;6.978;2023-06-26T08:57:26;101196.44;;;25.95;48.51
20825;BME280;10573;50.936;6.978;2023-06-26T08:59:52;101199.69;;;25.80;48.17
20825;BME280;10573;50.936;6.978;2023-06-26T09:02:18;101205.91;;;25.27;48.98
20825;BME280;10573;50.936;6.978;2023-06-26T09:04:43;101205.91;;;25.27;49.33
20825;BME280;10573;50.936;6.978;2023-06-26T09:07:09;101207.06;;;25.75;48.34
20825;BME280;10573;50.936;6.978;2023-06-26T09:09:35;101201.19;;;25.95;47.37
20825;BME280;10573;50.936;6.978;2023-06-26T09:12:04;101202.25;;;26.12;47.56
20825;BME280;10573;50.936;6.978;2023-06-26T09:14:29;101178.31;;;27.06;44.59
20825;BME280;10573;50.936;6.978;2023-06-26T09:16:55;101187.84;;;27.46;44.47
20825;BME280;10573;50.936;6.978;2023-06-26T09:19:20;101190.81;;;26.80;45.08
20825;BME280;10573;50.936;6.978;2023-06-26T09:21:45;101200.84;;;26.45;45.47
20825;BME280;10573;50.936;6.978;2023-06-26T09:24:13;101189.94;;;27.39;43.77
20825;BME280;10573;50.936;6.978;2023-06-26T09:26:40;101175.75;;;28.32;42.28
20825;BME280;10573;50.936;6.978;2023-06-26T09:29:06;101175.44;;;27.83;41.94
20825;BME280;10573;50.936;6.978;2023-06-26T09:31:36;101184.31;;;27.51;42.86
20825;BME280;10573;50.936;6.978;2023-06-26T09:34:02;101182.63;;;28.07;42.22
20825;BME280;10573;50.936;6.978;2023-06-26T09:36:30;101196.34;;;26.33;45.29
20825;BME280;10573;50.936;6.978;2023-06-26T09:39:02;101197.72;;;26.54;45.51
20825;BME280;10573;50.936;6.978;2023-06-26T09:41:28;101191.06;;;27.67;43.10
20825;BME280;10573;50.936;6.978;2023-06-26T09:43:53;101197.31;;;27.86;42.88
20825;BME280;10573;50.936;6.978;2023-06-26T09:46:26;101202.53;;;28.57;39.89
20825;BME280;10573;50.936;6.978;2023-06-26T09:49:03;101199.47;;;28.41;40.22
20825;BME280;10573;50.936;6.978;2023-06-26T09:51:32;101205.25;;;28.86;38.96
20825;BME280;10573;50.936;6.978;2023-06-26T09:54:01;101209.28;;;28.10;40.62
20825;BME280;10573;50.936;6.978;2023-06-26T09:56:27;101197.53;;;28.93;39.69
20825;BME280;10573;50.936;6.978;2023-06-26T09:58:55;101202.53;;;28.57;39.86
20825;BME280;10573;50.936;6.978;2023-06-26T10:01:21;101210.84;;;28.18;41.06
20825;BME280;10573;50.936;6.978;2023-06-26T10:03:46;101204.22;;;28.92;40.21
20825;BME280;10573;50.936;6.978;2023-06-26T10:06:11;101210.81;;;27.89;39.89
20825;BME280;10573;50.936;6.978;2023-06-26T10:08:38;101216.63;;;28.62;39.30
20825;BME280;10573;50.936;6.978;2023-06-26T10:11:04;101203.78;;;29.61;37.75
20825;BME280;10573;50.936;6.978;2023-06-26T10:13:35;101211.25;;;29.11;37.56
20825;BME280;10573;50.936;6.978;2023-06-26T10:16:02;101226.72;;;27.71;39.53
20825;BME280;10573;50.936;6.978;2023-06-26T10:18:27;101230.13;;;28.02;39.89
20825;BME280;10573;50.936;6.978;2023-06-26T10:20:56;101231.94;;;26.91;40.59
20825;BME280;10573;50.936;6.978;2023-06-26T10:23:25;101245.34;;;26.59;42.03
20825;BME280;10573;50.936;6.978;2023-06-26T10:25:53;101235.25;;;26.46;41.93
20825;BME280;10573;50.936;6.978;2023-06-26T10:28:20;101230.47;;;27.01;41.33
20825;BME280;10573;50.936;6.978;2023-06-26T10:30:46;101225.72;;;26.77;40.69
20825;BME280;10573;50.936;6.978;2023-06-26T10:33:13;101230.81;;;26.92;41.45
20825;BME280;10573;50.936;6.978;2023-06-26T10:35:45;101228.25;;;27.15;39.62
20825;BME280;10573;50.936;6.978;2023-06-26T10:38:10;101224.31;;;28.21;38.06
20825;BME280;10573;50.936;6.978;2023-06-26T10:40:46;101224.66;;;28.70;36.73
20825;BME280;10573;50.936;6.978;2023-06-26T10:43:12;101224.31;;;27.92;36.80
20825;BME280;10573;50.936;6.978;2023-06-26T10:45:46;101226.56;;;28.53;35.96
20825;BME280;10573;50.936;6.978;2023-06-26T10:48:15;101217.31;;;29.42;35.99
20825;BME280;10573;50.936;6.978;2023-06-26T10:50:41;101231.59;;;29.63;35.12
20825;BME280;10573;50.936;6.978;2023-06-26T10:56:11;101233.06;;;27.67;35.99
20825;BME280;10573;50.936;6.978;2023-06-26T11:01:22;101230.22;;;29.04;34.53
20825;BME280;10573;50.936;6.978;2023-06-26T11:03:49;101213.44;;;29.49;33.96
20825;BME280;10573;50.936;6.978;2023-06-26T11:06:21;101208.97;;;29.97;34.33
20825;BME280;10573;50.936;6.978;2023-06-26T11:08:48;101213.16;;;29.94;33.90
20825;BME280;10573;50.936;6.978;2023-06-26T11:11:14;101220.44;;;30.83;33.62
20825;BME280;10573;50.936;6.978;2023-06-26T11:13:40;101221.28;;;29.91;32.57
20825;BME280;10573;50.936;6.978;2023-06-26T11:16:06;101215.03;;;30.11;29.91
20825;BME280;10573;50.936;6.978;2023-06-26T11:18:32;101213.59;;;30.68;29.78
20825;BME280;10573;50.936;6.978;2023-06-26T11:21:11;101206.88;;;31.12;29.03
20825;BME280;10573;50.936;6.978;2023-06-26T11:23:39;101203.78;;;31.61;29.42
20825;BME280;10573;50.936;6.978;2023-06-26T11:28:46;101230.97;;;29.56;30.92
20825;BME280;10573;50.936;6.978;2023-06-26T11:31:32;101257.94;;;28.21;34.34
20825;BME280;10573;50.936;6.978;2023-06-26T11:34:03;101258.31;;;27.07;36.81
20825;BME280;10573;50.936;6.978;2023-06-26T11:36:30;101252.06;;;27.53;34.85
20825;BME280;10573;50.936;6.978;2023-06-26T11:38:57;101247.53;;;29.35;32.32
20825;BME280;10573;50.936;6.978;2023-06-26T11:41:27;101245.63;;;30.67;30.61
20825;BME280;10573;50.936;6.978;2023-06-26T11:43:53;101232.16;;;31.55;29.39
20825;BME280;10573;50.936;6.978;2023-06-26T11:46:19;101231.06;;;30.70;30.17
20825;BME280;10573;50.936;6.978;2023-06-26T11:48:45;101221.66;;;31.35;29.11
20825;BME280;10573;50.936;6.978;2023-06-26T11:51:12;101246.78;;;31.46;29.48
20825;BME280;10573;50.936;6.978;2023-06-26T11:53:40;101251.06;;;29.92;31.66
20825;BME280;10573;50.936;6.978;2023-06-26T11:56:07;101238.22;;;30.88;30.85
20825;BME280;10573;50.936;6.978;2023-06-26T11:58:33;101231.53;;;32.16;29.34
20825;BME280;10573;50.936;6.978;2023-06-26T12:00:58;101250.66;;;30.05;31.16
20825;BME280;10573;50.936;6.978;2023-06-26T12:03:23;101250.25;;;29.30;32.19
20825;BME280;10573;50.936;6.978;2023-06-26T12:05:49;101254.88;;;29.02;30.94
20825;BME280;10573;50.936;6.978;2023-06-26T12:08:17;101248.69;;;29.84;28.92
20825;BME280;10573;50.936;6.978;2023-06-26T12:10:43;101245.63;;;30.62;26.98
20825;BME280;10573;50.936;6.978;2023-06-26T12:13:08;101238.94;;;30.41;26.94
20825;BME280;10573;50.936;6.978;2023-06-26T12:15:33;101241.38;;;31.45;26.72
20825;BME280;10573;50.936;6.978;2023-06-26T12:17:59;101234.56;;;31.94;26.57
20825;BME280;10573;50.936;6.978;2023-06-26T12:20:25;101248.75;;;31.03;28.05
20825;BME280;10573;50.936;6.978;2023-06-26T12:22:50;101255.66;;;30.53;29.52
20825;BME280;10573;50.936;6.978;2023-06-26T12:25:23;101247.94;;;29.88;30.56
20825;BME280;10573;50.936;6.978;2023-06-26T12:27:48;101251.59;;;29.67;31.20
20825;BME280;10573;50.936;6.978;2023-06-26T12:30:15;101267.38;;;28.94;32.25
20825;BME280;10573;50.936;6.978;2023-06-26T12:32:44;101268.06;;;28.22;33.38
20825;BME280;10573;50.936;6.978;2023-06-26T12:35:10;101270.06;;;28.09;33.69
20825;BME280;10573;50.936;6.978;2023-06-26T12:37:38;101267.66;;;28.93;33.13
20825;BME280;10573;50.936;6.978;2023-06-26T12:40:19;101281.31;;;30.34;29.96
20825;BME280;10573;50.936;6.978;2023-06-26T12:42:48;101272.16;;;30.76;28.36
20825;BME280;10573;50.936;6.978;2023-06-26T12:45:14;101272.31;;;31.93;27.32
20825;BME280;10573;50.936;6.978;2023-06-26T12:47:40;101280.47;;;30.61;28.54
20825;BME280;10573;50.936;6.978;2023-06-26T12:50:06;101280.69;;;30.54;29.62
20825;BME280;10573;50.936;6.978;2023-06-26T12:52:32;101301.78;;;30.29;30.36
20825;BME280;10573;50.936;6.978;2023-06-26T12:54:57;101301.03;;;30.12;30.93
20825;BME280;10573;50.936;6.978;2023-06-26T12:57:23;101279.16;;;29.92;29.75
20825;BME280;10573;50.936;6.978;2023-06-26T12:59:48;101279.59;;;30.88;27.58
20825;BME280;10573;50.936;6.978;2023-06-26T13:02:14;101271.16;;;31.78;26.50